Time;durP1;ratioP1;P1;durP2;ratioP2;P2;SDS_P1;SDS_P2;PMS_P1;PMS_P2;Temp;Humidity;BMP_temperature;BMP_pressure;BME280_temperature;BME280_humidity;BME280_pressure;Samples;Min_cycle;Max_cycle;Signal;HPM_P1;HPM_P2
2021/03/11 00:00:11;;;;;;;8.77;2.83;;;;;;;17.61;60.33;97422.78;4871869;29;20032;-69
2021/03/11 00:02:37;;;;;;;9.38;3.22;;;;;;;17.60;60.43;97424.66;4893793;29;20041;-69
2021/03/11 00:05:06;;;;;;;9.75;2.80;;;;;;;17.59;60.19;97419.63;4878217;29;20353;-68
2021/03/11 00:07:33;;;;;;;11.52;3.15;;;;;;;17.58;60.18;97418.03;4893107;29;20048;-69
2021/03/11 00:09:58;;;;;;;7.63;2.70;;;;;;;17.57;60.41;97401.34;4894458;29;20044;-69
2021/03/11 00:12:24;;;;;;;12.75;3.13;;;;;;;17.56;59.95;97398.94;4893177;29;20037;-71
2021/03/11 00:14:49;;;;;;;9.15;2.78;;;;;;;17.55;60.25;97395.50;4894657;29;20032;-68
2021/03/11 00:17:15;;;;;;;8.40;2.85;;;;;;;17.54;59.94;97385.19;4876654;29;20032;-74
2021/03/11 00:19:40;;;;;;;10.25;3.45;;;;;;;17.53;60.18;97379.09;4877912;29;20045;-68
2021/03/11 00:22:06;;;;;;;9.20;2.50;;;;;;;17.53;60.14;97370.34;4878495;29;20036;-69
2021/03/11 00:24:31;;;;;;;8.30;2.50;;;;;;;17.51;60.00;97367.13;4892906;29;20047;-69
2021/03/11 00:26:57;;;;;;;6.90;2.58;;;;;;;17.51;60.13;97353.88;4877280;29;20033;-69
2021/03/11 00:29:23;;;;;;;7.30;2.38;;;;;;;17.50;60.05;97331.09;4876414;29;20464;-68
2021/03/11 00:31:48;;;;;;;10.85;2.70;;;;;;;17.49;59.77;97337.47;4882273;29;20037;-68
2021/03/11 00:34:14;;;;;;;10.70;2.72;;;;;;;17.49;60.06;97334.81;4875996;29;20390;-68
2021/03/11 00:36:39;;;;;;;7.13;2.30;;;;;;;17.47;59.71;97310.44;4879414;29;20048;-68
2021/03/11 00:39:06;;;;;;;7.68;2.40;;;;;;;17.45;59.87;97316.00;4875260;29;20165;-68
2021/03/11 00:41:31;;;;;;;10.38;2.40;;;;;;;17.45;59.83;97310.72;4895569;29;20032;-72
2021/03/11 00:43:57;;;;;;;10.13;2.50;;;;;;;17.44;59.65;97313.63;4879881;29;20393;-69
2021/03/11 00:46:22;;;;;;;7.85;2.20;;;;;;;17.44;59.31;97310.97;4882284;29;20033;-69
2021/03/11 00:48:48;;;;;;;6.47;2.15;;;;;;;17.43;59.45;97298.78;4891521;29;20424;-70
2021/03/11 00:51:14;;;;;;;10.05;2.63;;;;;;;17.42;59.40;97284.75;4884470;29;20052;-69
2021/03/11 00:53:40;;;;;;;8.18;2.40;;;;;;;17.41;59.25;97283.16;4856833;29;20131;-69
2021/03/11 00:56:06;;;;;;;8.70;2.38;;;;;;;17.41;59.43;97290.31;4893330;29;20180;-69
2021/03/11 00:58:32;;;;;;;7.43;2.08;;;;;;;17.40;59.37;97280.78;4876509;29;20152;-69
2021/03/11 01:00:57;;;;;;;8.13;2.45;;;;;;;17.39;59.35;97261.44;4876071;29;20037;-69
2021/03/11 01:03:23;;;;;;;6.85;2.20;;;;;;;17.39;59.13;97276.56;4893150;29;20475;-69
2021/03/11 01:05:48;;;;;;;9.20;2.15;;;;;;;17.37;59.12;97268.88;4893194;29;20027;-70
2021/03/11 01:08:14;;;;;;;10.90;2.70;;;;;;;17.36;59.13;97236.28;4893433;29;20036;-69
2021/03/11 01:10:41;;;;;;;10.50;2.25;;;;;;;17.35;59.27;97247.94;4891331;29;20372;-69
2021/03/11 01:13:07;;;;;;;10.60;2.50;;;;;;;17.34;59.11;97246.34;4910535;29;20032;-70
2021/03/11 01:15:43;;;;;;;11.57;2.58;;;;;;;17.33;59.01;97246.59;4886618;29;20033;-70
2021/03/11 01:18:11;;;;;;;8.55;2.17;;;;;;;17.34;58.92;97227.00;4904453;29;20048;-71
2021/03/11 01:20:37;;;;;;;7.32;2.22;;;;;;;17.33;59.14;97225.41;4880453;29;20037;-74
2021/03/11 01:23:03;;;;;;;6.22;1.88;;;;;;;17.32;58.91;97219.31;4893746;29;20032;-69
2021/03/11 01:25:28;;;;;;;6.38;1.75;;;;;;;17.32;58.67;97226.47;4891668;29;20147;-69
2021/03/11 01:27:54;;;;;;;10.70;2.00;;;;;;;17.31;58.74;97223.03;4874979;29;20484;-70
2021/03/11 01:30:20;;;;;;;6.95;1.85;;;;;;;17.30;58.93;97200.25;4892067;29;20040;-74
2021/03/11 01:32:45;;;;;;;7.00;1.65;;;;;;;17.29;58.94;97192.59;4872818;29;20243;-71
2021/03/11 01:35:11;;;;;;;8.80;2.05;;;;;;;17.29;58.79;97205.84;4892761;29;20160;-70
2021/03/11 01:37:37;;;;;;;8.10;2.03;;;;;;;17.29;58.92;97203.19;4889955;29;20054;-69
2021/03/11 01:40:07;;;;;;;6.13;1.90;;;;;;;17.28;58.60;97188.34;4858071;29;20218;-69
2021/03/11 01:42:34;;;;;;;7.30;1.98;;;;;;;17.28;58.98;97175.91;4885767;29;20556;-71
2021/03/11 01:44:59;;;;;;;7.20;2.17;;;;;;;17.27;59.15;97189.41;4891001;29;20104;-69
2021/03/11 01:47:25;;;;;;;6.47;1.70;;;;;;;17.27;59.03;97181.47;4891657;29;20086;-69
2021/03/11 01:49:51;;;;;;;5.32;1.42;;;;;;;17.25;58.78;97184.38;4893268;29;20103;-69
2021/03/11 01:52:17;;;;;;;6.90;1.80;;;;;;;17.25;59.04;97181.75;4887971;29;20358;-68
2021/03/11 01:54:42;;;;;;;7.18;2.55;;;;;;;17.24;59.02;97184.66;4884839;29;20036;-67
2021/03/11 01:57:08;;;;;;;7.13;1.50;;;;;;;17.22;59.03;97179.63;4877019;29;20112;-67
2021/03/11 01:59:35;;;;;;;6.03;1.52;;;;;;;17.23;59.02;97181.22;4868332;29;20064;-67
2021/03/11 02:02:00;;;;;;;4.82;1.63;;;;;;;17.22;59.01;97184.94;4878861;29;20041;-67
2021/03/11 02:04:26;;;;;;;6.47;2.20;;;;;;;17.21;59.15;97183.34;4864384;29;20052;-70
2021/03/11 02:06:52;;;;;;;6.00;1.52;;;;;;;17.20;58.72;97195.00;4896586;29;20478;-69
2021/03/11 02:09:18;;;;;;;5.25;1.40;;;;;;;17.21;59.04;97191.28;4894947;29;20089;-67
2021/03/11 02:11:59;;;;;;;4.88;1.70;;;;;;;17.20;58.99;97197.66;4876038;29;20144;-67
2021/03/11 02:14:34;;;;;;;5.00;1.88;;;;;;;17.20;58.85;97191.53;4894132;29;20028;-68
2021/03/11 02:17:02;;;;;;;5.55;1.35;;;;;;;17.19;58.75;97196.03;4878649;29;20060;-67
2021/03/11 02:20:05;;;;;;;4.18;1.48;;;;;;;17.17;58.91;97210.63;4895687;29;20103;-68
2021/03/11 02:22:42;;;;;;;4.17;1.17;;;;;;;17.16;59.06;97225.72;4877336;29;20026;-67
2021/03/11 02:25:23;;;;;;;4.95;1.33;;;;;;;17.17;58.97;97227.31;4890312;29;20025;-72
2021/03/11 02:28:12;;;;;;;3.60;1.35;;;;;;;17.13;59.28;97220.97;4884973;29;20539;-68
2021/03/11 02:30:40;;;;;;;3.65;1.27;;;;;;;17.15;58.85;97261.22;4879214;29;20032;-67
2021/03/11 02:33:08;;;;;;;3.35;1.00;;;;;;;17.16;58.89;97262.78;4888643;29;20483;-68
2021/03/11 02:35:37;;;;;;;3.33;0.98;;;;;;;17.15;58.98;97266.50;4899147;29;20092;-68
2021/03/11 02:38:05;;;;;;;4.10;1.10;;;;;;;17.14;59.26;97272.88;4886299;29;20020;-68
2021/03/11 02:40:33;;;;;;;3.78;0.93;;;;;;;17.14;59.35;97295.91;4885360;29;20033;-68
2021/03/11 02:43:02;;;;;;;3.88;0.90;;;;;;;17.13;58.95;97296.97;4896289;29;20043;-68
2021/03/11 02:45:32;;;;;;;4.07;1.10;;;;;;;17.14;59.41;97317.09;4895513;29;20051;-69
2021/03/11 02:48:01;;;;;;;4.97;1.30;;;;;;;17.12;59.04;97314.72;4896445;29;20112;-73
2021/03/11 02:50:28;;;;;;;3.67;1.00;;;;;;;17.13;59.34;97332.19;4877956;29;20044;-69
2021/03/11 02:52:54;;;;;;;3.03;1.00;;;;;;;17.12;59.51;97327.94;4890754;29;20352;-70
2021/03/11 02:55:22;;;;;;;3.05;0.90;;;;;;;17.12;59.26;97351.78;4900184;29;20031;-75
2021/03/11 02:57:53;;;;;;;3.50;1.23;;;;;;;17.12;59.20;97372.97;4882294;29;20062;-69
2021/03/11 03:00:21;;;;;;;3.97;1.10;;;;;;;17.11;59.25;97384.63;4893581;29;20045;-70
2021/03/11 03:02:47;;;;;;;5.88;0.98;;;;;;;17.11;59.51;97408.47;4895881;29;20135;-69
2021/03/11 03:05:16;;;;;;;4.10;1.00;;;;;;;17.11;59.48;97415.59;4888056;29;20024;-71
2021/03/11 03:07:45;;;;;;;2.90;1.00;;;;;;;17.10;59.52;97428.06;4894153;29;20035;-69
2021/03/11 03:10:14;;;;;;;3.47;0.90;;;;;;;17.11;59.34;97465.94;4879808;29;20349;-69
2021/03/11 03:12:40;;;;;;;3.10;0.90;;;;;;;17.09;59.38;97476.78;4890931;29;20223;-69
2021/03/11 03:15:07;;;;;;;3.28;1.00;;;;;;;17.10;59.55;97485.53;4884288;29;20461;-69
2021/03/11 03:17:34;;;;;;;3.53;1.20;;;;;;;17.10;59.54;97496.13;4876224;29;20118;-69
2021/03/11 03:20:02;;;;;;;3.45;0.80;;;;;;;17.09;59.73;97518.34;4865925;29;20037;-70
2021/03/11 03:22:28;;;;;;;1.92;0.80;;;;;;;17.09;59.75;97540.34;4886857;29;20033;-69
2021/03/11 03:24:54;;;;;;;4.45;1.25;;;;;;;17.09;59.41;97555.44;4882766;29;20033;-69
2021/03/11 03:27:19;;;;;;;3.28;1.00;;;;;;;17.10;59.67;97607.34;4884127;29;20468;-74
2021/03/11 03:29:45;;;;;;;2.08;0.80;;;;;;;17.09;59.72;97611.03;4869155;29;20036;-69
2021/03/11 03:32:11;;;;;;;2.55;0.82;;;;;;;17.08;59.73;97636.75;4902936;29;20629;-69
2021/03/11 03:34:37;;;;;;;2.63;0.90;;;;;;;17.09;59.66;97662.16;4894404;29;20085;-70
2021/03/11 03:37:03;;;;;;;4.20;0.85;;;;;;;17.08;59.96;97684.41;4887991;29;20024;-70
2021/03/11 03:39:29;;;;;;;2.40;0.70;;;;;;;17.09;59.89;97703.75;4892888;29;20464;-70
2021/03/11 03:41:56;;;;;;;2.47;0.82;;;;;;;17.08;59.95;97725.97;4894864;29;20468;-70
2021/03/11 03:44:25;;;;;;;2.35;0.80;;;;;;;17.08;59.80;97731.28;4883087;29;20521;-70
2021/03/11 03:46:51;;;;;;;2.85;0.73;;;;;;;17.09;60.03;97764.66;4893111;29;20075;-69
2021/03/11 03:49:18;;;;;;;1.83;0.70;;;;;;;17.06;59.91;97787.16;4885176;29;20473;-69
2021/03/11 03:51:48;;;;;;;2.63;0.70;;;;;;;17.07;59.62;97801.97;4877477;29;20048;-69
2021/03/11 03:54:20;;;;;;;3.78;0.80;;;;;;;17.07;59.59;97796.69;4885595;29;20025;-71
2021/03/11 03:56:54;;;;;;;2.42;0.57;;;;;;;17.05;59.49;97817.34;4889156;29;20036;-69
2021/03/11 03:59:24;;;;;;;3.50;0.85;;;;;;;17.05;59.76;97828.72;4884645;29;20032;-73
2021/03/11 04:01:58;;;;;;;2.70;0.80;;;;;;;17.05;59.56;97860.50;4894521;29;20040;-71
2021/03/11 04:04:29;;;;;;;2.80;0.90;;;;;;;17.04;59.74;97866.84;4885770;29;20037;-69
2021/03/11 04:06:56;;;;;;;2.75;0.80;;;;;;;17.04;59.63;97890.69;4873075;29;21598;-70
2021/03/11 04:09:23;;;;;;;2.17;0.73;;;;;;;17.05;59.94;97912.69;4894695;29;20029;-69
2021/03/11 04:11:49;;;;;;;3.15;0.80;;;;;;;17.03;59.52;97922.69;4893587;29;20028;-74
2021/03/11 04:14:16;;;;;;;2.72;0.60;;;;;;;17.03;59.62;97934.09;4876672;29;20041;-69
2021/03/11 04:16:42;;;;;;;2.25;0.57;;;;;;;17.04;59.60;97924.28;4884035;29;20116;-69
2021/03/11 04:19:10;;;;;;;2.03;0.52;;;;;;;17.03;59.53;97960.56;4874696;29;20055;-68
2021/03/11 04:21:36;;;;;;;2.20;0.77;;;;;;;17.03;59.26;97978.31;4877060;29;20055;-68
2021/03/11 04:24:02;;;;;;;2.22;0.60;;;;;;;17.03;59.78;97994.19;4892697;29;20029;-68
2021/03/11 04:26:32;;;;;;;2.53;0.70;;;;;;;17.02;59.67;98004.00;4894604;29;20056;-67
2021/03/11 04:28:59;;;;;;;1.50;0.70;;;;;;;17.02;59.64;98011.13;4891037;29;20372;-67
2021/03/11 04:31:26;;;;;;;1.88;0.50;;;;;;;17.01;59.44;98018.28;4880648;29;20036;-68
2021/03/11 04:33:52;;;;;;;2.00;0.60;;;;;;;17.02;59.65;98034.97;4880419;29;20039;-69
2021/03/11 04:36:18;;;;;;;1.73;0.57;;;;;;;17.01;59.39;98063.31;4893518;29;20410;-67
2021/03/11 04:38:44;;;;;;;1.42;0.50;;;;;;;17.00;59.56;98079.44;4884550;29;20539;-67
2021/03/11 04:41:10;;;;;;;2.47;0.93;;;;;;;17.00;59.40;98097.97;4875998;29;20056;-66
2021/03/11 04:43:38;;;;;;;1.38;0.40;;;;;;;17.00;59.70;98100.63;4893686;29;20500;-67
2021/03/11 04:46:04;;;;;;;2.08;0.50;;;;;;;17.00;59.57;98127.09;4893361;29;20028;-68
2021/03/11 04:48:32;;;;;;;2.92;0.70;;;;;;;16.99;59.38;98149.34;4891220;29;20059;-71
2021/03/11 04:51:02;;;;;;;2.40;0.82;;;;;;;16.98;59.47;98167.06;4892842;29;20083;-69
2021/03/11 04:53:27;;;;;;;1.83;0.60;;;;;;;16.99;59.42;98173.16;4892068;29;20065;-68
2021/03/11 04:55:53;;;;;;;1.17;0.50;;;;;;;16.98;59.34;98182.97;4892222;29;20036;-69
2021/03/11 04:58:19;;;;;;;3.45;0.65;;;;;;;16.98;59.33;98204.16;4862057;29;20357;-68
2021/03/11 05:00:49;;;;;;;1.90;0.45;;;;;;;16.97;59.27;98196.44;4880179;29;20051;-69
2021/03/11 05:03:16;;;;;;;3.10;0.80;;;;;;;16.97;59.18;98213.13;4880476;29;20138;-68
2021/03/11 05:05:43;;;;;;;1.58;0.57;;;;;;;16.97;59.31;98223.75;4879862;29;20539;-69
2021/03/11 05:08:09;;;;;;;1.88;0.70;;;;;;;16.97;59.00;98228.22;4892607;29;20120;-69
2021/03/11 05:10:37;;;;;;;1.95;0.60;;;;;;;16.96;59.37;98231.94;4893187;29;20064;-68
2021/03/11 05:13:03;;;;;;;2.25;0.50;;;;;;;16.95;59.17;98247.00;4875613;29;20040;-68
2021/03/11 05:15:29;;;;;;;3.40;0.57;;;;;;;16.95;59.12;98262.09;4886939;29;20361;-68
2021/03/11 05:17:54;;;;;;;2.70;0.80;;;;;;;16.95;58.82;98257.59;4893421;29;20124;-69
2021/03/11 05:20:21;;;;;;;2.40;0.70;;;;;;;16.95;59.02;98270.03;4863423;29;20029;-68
2021/03/11 05:22:47;;;;;;;2.55;0.70;;;;;;;16.94;58.86;98271.88;4887390;29;20025;-69
2021/03/11 05:25:12;;;;;;;1.20;0.47;;;;;;;16.95;58.87;98294.69;4886645;29;20031;-68
2021/03/11 05:27:39;;;;;;;1.13;0.40;;;;;;;16.95;58.88;98289.38;4860000;29;20040;-68
2021/03/11 05:30:07;;;;;;;2.42;0.70;;;;;;;16.94;58.97;98289.63;4884684;29;20071;-68
2021/03/11 05:32:33;;;;;;;2.78;0.52;;;;;;;16.93;58.80;98315.31;4891042;29;20052;-69
2021/03/11 05:34:59;;;;;;;2.70;0.60;;;;;;;16.94;58.76;98308.16;4875843;29;20371;-68
2021/03/11 05:37:24;;;;;;;1.95;0.70;;;;;;;16.92;58.92;98308.41;4860398;29;20463;-74
2021/03/11 05:39:50;;;;;;;3.15;0.70;;;;;;;16.92;58.76;98323.50;4875400;29;20175;-69
2021/03/11 05:42:18;;;;;;;2.55;0.60;;;;;;;16.93;58.72;98333.84;4912597;23;20084;-68
2021/03/11 05:44:44;;;;;;;1.38;0.50;;;;;;;16.91;58.74;98332.47;4888247;29;20108;-68
2021/03/11 05:47:15;;;;;;;2.47;0.60;;;;;;;16.91;58.59;98351.81;4892923;29;20037;-68
2021/03/11 05:49:41;;;;;;;1.75;0.60;;;;;;;16.91;58.88;98358.97;4890095;29;20410;-68
2021/03/11 05:52:11;;;;;;;1.80;0.68;;;;;;;16.91;58.86;98374.84;4884541;29;20063;-68
2021/03/11 05:54:37;;;;;;;2.25;0.80;;;;;;;16.91;58.82;98385.44;4889743;29;20033;-68
2021/03/11 05:57:04;;;;;;;3.13;0.60;;;;;;;16.90;58.70;98392.59;4893729;29;20085;-68
2021/03/11 05:59:29;;;;;;;2.28;0.60;;;;;;;16.89;58.82;98414.00;4891603;29;20112;-68
2021/03/11 06:01:56;;;;;;;2.00;0.60;;;;;;;16.89;58.68;98427.25;4860783;29;20126;-68
2021/03/11 06:04:22;;;;;;;2.08;0.73;;;;;;;16.89;58.75;98438.63;4892602;29;20055;-68
2021/03/11 06:06:49;;;;;;;1.95;0.60;;;;;;;16.89;58.79;98456.38;4890579;29;20043;-68
2021/03/11 06:09:17;;;;;;;2.60;0.70;;;;;;;16.89;58.46;98469.63;4893222;29;20050;-67
2021/03/11 06:11:44;;;;;;;3.25;0.73;;;;;;;16.89;58.40;98469.63;4889028;29;20199;-68
2021/03/11 06:14:15;;;;;;;1.77;0.60;;;;;;;16.87;58.41;98479.59;4873646;29;20496;-68
2021/03/11 06:16:48;;;;;;;2.05;0.47;;;;;;;16.87;58.32;98488.34;4877956;29;20037;-68
2021/03/11 06:19:14;;;;;;;1.95;0.68;;;;;;;16.86;58.59;98486.75;4878533;29;20029;-68
2021/03/11 06:21:42;;;;;;;3.75;0.70;;;;;;;16.87;58.53;98488.34;4878881;29;20060;-68
2021/03/11 06:24:09;;;;;;;3.72;0.80;;;;;;;16.87;58.25;98500.78;4883417;29;20128;-68
2021/03/11 06:26:34;;;;;;;3.10;0.70;;;;;;;16.87;58.27;98508.75;4884597;29;20382;-68
2021/03/11 06:29:00;;;;;;;2.22;0.57;;;;;;;16.86;58.47;98518.53;4882220;29;20048;-68
2021/03/11 06:31:27;;;;;;;2.75;0.77;;;;;;;16.86;58.24;98520.38;4885866;29;20057;-68
2021/03/11 06:33:55;;;;;;;4.35;1.00;;;;;;;16.85;58.48;98521.41;4878527;29;20037;-68
2021/03/11 06:36:25;;;;;;;5.55;0.88;;;;;;;16.84;58.07;98538.34;4890840;29;20400;-68
2021/03/11 06:38:51;;;;;;;2.88;0.80;;;;;;;16.85;58.47;98546.03;4880721;29;20649;-69
2021/03/11 06:41:18;;;;;;;2.95;0.80;;;;;;;16.85;58.26;98545.25;4877399;29;20061;-67
2021/03/11 06:44:01;;;;;;;2.78;0.55;;;;;;;16.83;58.70;98558.72;4895559;29;20041;-66
2021/03/11 06:46:28;;;;;;;3.10;1.17;;;;;;;16.87;58.61;98562.50;4895364;29;20037;-67
2021/03/11 06:49:11;;;;;;;2.55;0.70;;;;;;;16.85;58.93;98569.06;4896239;29;20131;-67
2021/03/11 06:51:37;;;;;;;1.90;0.80;;;;;;;16.87;58.77;98570.44;4878361;29;20041;-67
2021/03/11 06:54:03;;;;;;;3.40;0.57;;;;;;;16.89;59.16;98572.88;4884485;29;20033;-68
2021/03/11 06:56:29;;;;;;;3.45;0.57;;;;;;;16.91;59.15;98584.84;4902741;29;20093;-68
2021/03/11 06:58:57;;;;;;;3.45;0.88;;;;;;;16.92;59.49;98585.66;4880756;29;20450;-67
2021/03/11 07:01:24;;;;;;;3.63;1.17;;;;;;;16.95;59.43;98595.78;4903385;29;20112;-70
2021/03/11 07:03:50;;;;;;;3.25;0.80;;;;;;;16.97;59.66;98596.34;4888913;29;20069;-66
2021/03/11 07:06:26;;;;;;;2.83;0.68;;;;;;;16.98;59.97;98595.31;4882944;29;20071;-67
2021/03/11 07:08:52;;;;;;;2.90;0.80;;;;;;;17.02;60.09;98610.50;4881917;29;20033;-66
2021/03/11 07:11:19;;;;;;;4.88;1.00;;;;;;;17.05;60.18;98617.19;4902165;29;20036;-63
2021/03/11 07:13:44;;;;;;;4.00;0.77;;;;;;;17.08;60.25;98637.91;4883518;29;20037;-63
2021/03/11 07:16:12;;;;;;;3.70;1.10;;;;;;;17.12;60.74;98633.75;4889600;29;20051;-64
2021/03/11 07:18:37;;;;;;;4.07;0.70;;;;;;;17.16;61.15;98645.50;4903571;29;20033;-61
2021/03/11 07:21:03;;;;;;;6.93;0.90;;;;;;;17.19;61.15;98644.22;4892413;29;20035;-64
2021/03/11 07:23:28;;;;;;;5.32;0.90;;;;;;;17.24;61.56;98657.59;4890547;29;20040;-67
2021/03/11 07:25:54;;;;;;;4.88;0.82;;;;;;;17.27;61.91;98657.91;4883749;29;20096;-67
2021/03/11 07:28:22;;;;;;;4.20;0.60;;;;;;;17.31;62.34;98663.53;4885360;29;20107;-67
2021/03/11 07:30:55;;;;;;;4.28;1.08;;;;;;;17.35;62.07;98685.88;4891836;29;20033;-67
2021/03/11 07:33:22;;;;;;;3.30;0.82;;;;;;;17.39;62.41;98691.56;4894612;29;20499;-67
2021/03/11 07:35:49;;;;;;;5.95;0.85;;;;;;;17.42;62.33;98694.53;4893602;29;20060;-67
2021/03/11 07:38:21;;;;;;;4.50;0.82;;;;;;;17.45;62.41;98699.38;4894748;29;20036;-67
2021/03/11 07:40:47;;;;;;;6.15;1.00;;;;;;;17.48;62.27;98703.38;4894915;29;20481;-66
2021/03/11 07:43:17;;;;;;;5.80;0.82;;;;;;;17.52;62.36;98713.31;4893237;29;20029;-66
2021/03/11 07:45:43;;;;;;;4.88;0.95;;;;;;;17.53;62.70;98714.91;4866922;29;20095;-67
2021/03/11 07:48:10;;;;;;;4.03;0.93;;;;;;;17.56;62.10;98724.25;4892187;29;20455;-67
2021/03/11 07:50:36;;;;;;;5.05;0.80;;;;;;;17.56;62.39;98743.59;4893805;29;20091;-66
2021/03/11 07:53:03;;;;;;;5.43;1.50;;;;;;;17.59;61.94;98756.38;4901421;29;20474;-66
2021/03/11 07:55:29;;;;;;;5.03;0.98;;;;;;;17.60;62.10;98754.53;4893299;29;20052;-65
2021/03/11 07:57:58;;;;;;;4.80;1.02;;;;;;;17.60;61.88;98765.16;4884152;29;20528;-66
2021/03/11 08:00:26;;;;;;;5.15;1.10;;;;;;;17.61;61.80;98766.75;4886260;29;20029;-67
2021/03/11 08:03:15;;;;;;;4.88;0.88;;;;;;;17.59;61.65;98782.91;4903346;29;20118;-66
2021/03/11 08:05:41;;;;;;;4.32;1.23;;;;;;;17.62;61.54;98785.09;4887032;29;20140;-67
2021/03/11 08:08:20;;;;;;;3.72;1.13;;;;;;;17.60;61.57;98802.25;4885124;29;20067;-67
2021/03/11 08:11:03;;;;;;;3.22;0.90;;;;;;;17.60;61.48;98794.31;4880170;29;20041;-66
2021/03/11 08:13:36;;;;;;;2.60;0.65;;;;;;;17.61;61.97;98809.97;4890937;29;20507;-66
2021/03/11 08:16:16;;;;;;;6.10;0.80;;;;;;;17.61;61.83;98811.84;4875079;29;20037;-66
2021/03/11 08:18:44;;;;;;;4.93;0.95;;;;;;;17.64;61.79;98827.28;4888832;29;20032;-66
2021/03/11 08:21:25;;;;;;;4.13;1.08;;;;;;;17.61;61.67;98831.19;4893398;29;20025;-69
2021/03/11 08:23:52;;;;;;;4.43;0.80;;;;;;;17.63;61.78;98839.72;4893210;29;20046;-68
2021/03/11 08:26:37;;;;;;;8.23;1.15;;;;;;;17.61;61.47;98838.34;4893329;29;20040;-69
2021/03/11 08:29:22;;;;;;;6.38;1.00;;;;;;;17.61;61.29;98838.34;4880219;29;20083;-76
2021/03/11 08:31:49;;;;;;;3.20;0.95;;;;;;;17.63;61.13;98855.63;4880312;29;20028;-68
2021/03/11 08:34:33;;;;;;;5.30;1.20;;;;;;;17.60;61.29;98855.28;4874357;29;20036;-67
2021/03/11 08:37:17;;;;;;;6.80;1.20;;;;;;;17.60;61.24;98855.28;4885001;29;20036;-67
2021/03/11 08:39:43;;;;;;;11.20;2.45;;;;;;;17.60;60.88;98852.63;4879194;29;20025;-68
2021/03/11 08:42:41;;;;;;;9.43;1.90;;;;;;;17.57;60.97;98855.75;4873317;29;20052;-70
2021/03/11 08:45:07;;;;;;;10.35;2.03;;;;;;;17.59;61.36;98866.94;4875872;29;20115;-69
2021/03/11 08:47:33;;;;;;;10.82;2.25;;;;;;;17.58;61.22;98871.44;4873533;29;20037;-67
2021/03/11 08:49:58;;;;;;;10.73;2.33;;;;;;;17.58;61.48;98889.19;4874788;29;20465;-67
2021/03/11 08:52:44;;;;;;;13.27;2.83;;;;;;;17.55;61.40;98893.09;4872932;29;20666;-67
2021/03/11 08:55:32;;;;;;;9.30;2.78;;;;;;;17.53;60.63;98884.59;4879143;29;20106;-67
2021/03/11 08:57:59;;;;;;;7.43;1.92;;;;;;;17.51;59.83;98897.22;4871657;29;20041;-67
2021/03/11 09:00:55;;;;;;;7.90;2.13;;;;;;;17.44;58.77;98907.16;4876843;29;20051;-66
2021/03/11 09:03:47;;;;;;;13.98;2.50;;;;;;;17.39;57.84;98900.94;4850706;29;20149;-63
2021/03/11 09:06:13;;;;;;;9.80;2.45;;;;;;;17.36;57.20;98916.25;4855440;29;20049;-62
2021/03/11 09:08:54;;;;;;;9.38;2.10;;;;;;;17.28;56.24;98915.75;4863242;29;20057;-61
2021/03/11 09:11:22;;;;;;;7.47;1.80;;;;;;;17.25;56.08;98917.03;4863894;29;20064;-63
2021/03/11 09:13:53;;;;;;;5.68;1.73;;;;;;;17.20;54.86;98919.56;4867829;29;20029;-65
2021/03/11 09:16:28;;;;;;;5.57;1.23;;;;;;;17.15;54.36;98939.78;4860751;29;20116;-68
2021/03/11 09:18:57;;;;;;;6.13;1.50;;;;;;;17.09;53.77;98930.91;4871727;29;20045;-63
2021/03/11 09:21:36;;;;;;;6.00;1.80;;;;;;;17.03;52.94;98937.09;4864073;29;20055;-64
2021/03/11 09:24:03;;;;;;;6.30;1.30;;;;;;;17.00;53.28;98945.50;4872023;29;20049;-64
2021/03/11 09:26:33;;;;;;;5.90;1.48;;;;;;;16.97;52.22;98948.59;4855550;29;20033;-64
2021/03/11 09:28:58;;;;;;;5.03;1.58;;;;;;;16.93;52.54;98958.84;4867502;29;20043;-64
2021/03/11 09:31:26;;;;;;;4.72;1.35;;;;;;;16.90;52.07;98977.03;4869340;29;20037;-64
2021/03/11 09:33:52;;;;;;;6.13;1.33;;;;;;;16.87;51.77;98977.44;4868355;29;20131;-64
2021/03/11 09:36:18;;;;;;;6.63;1.75;;;;;;;16.84;51.30;98984.00;4857929;29;20048;-64
2021/03/11 09:38:43;;;;;;;8.30;1.63;;;;;;;16.80;50.88;98982.84;4872869;29;20052;-64
2021/03/11 09:41:10;;;;;;;5.63;1.33;;;;;;;16.75;50.56;98980.88;4877503;29;20075;-64
2021/03/11 09:43:37;;;;;;;8.85;1.17;;;;;;;16.71;50.22;98990.28;4892623;29;20087;-64
2021/03/11 09:46:11;;;;;;;8.85;1.52;;;;;;;16.69;49.97;98991.53;4878542;29;20056;-64
2021/03/11 09:48:42;;;;;;;10.05;1.60;;;;;;;16.65;49.88;98993.78;4892560;29;20040;-64
2021/03/11 09:51:19;;;;;;;6.32;2.15;;;;;;;16.62;49.46;98988.94;4878682;29;20108;-64
2021/03/11 09:53:59;;;;;;;6.80;1.60;;;;;;;16.61;49.56;99012.97;4869349;29;20353;-64
2021/03/11 09:56:27;;;;;;;4.72;1.58;;;;;;;16.57;49.56;99007.31;4891609;29;20033;-64
2021/03/11 09:59:03;;;;;;;8.32;1.67;;;;;;;16.54;49.17;99012.22;4891216;29;20036;-64
2021/03/11 10:01:36;;;;;;;6.85;1.85;;;;;;;16.52;49.14;99027.53;4891371;29;20037;-64
2021/03/11 10:04:14;;;;;;;6.63;2.00;;;;;;;16.46;48.53;99037.16;4892220;29;20041;-64
2021/03/11 10:06:54;;;;;;;7.68;1.92;;;;;;;16.43;48.62;99043.72;4894048;29;20036;-64
2021/03/11 10:09:20;;;;;;;7.45;1.73;;;;;;;16.42;48.51;99031.50;4900945;29;20035;-64
2021/03/11 10:11:47;;;;;;;7.10;1.98;;;;;;;16.40;48.53;99045.97;4878790;29;20041;-64
2021/03/11 10:14:18;;;;;;;6.72;1.40;;;;;;;16.37;48.23;99035.81;4885849;29;20047;-64
2021/03/11 10:16:46;;;;;;;7.80;1.50;;;;;;;16.36;48.00;99028.91;4900531;29;20037;-65
2021/03/11 10:19:22;;;;;;;3.97;1.30;;;;;;;16.34;47.96;99044.19;4895197;29;20050;-64
2021/03/11 10:21:56;;;;;;;5.70;1.27;;;;;;;16.30;47.82;99049.13;4896930;29;20045;-64
2021/03/11 10:24:31;;;;;;;6.80;1.20;;;;;;;16.27;48.00;99038.16;4893494;29;20456;-64
2021/03/11 10:26:57;;;;;;;5.82;1.50;;;;;;;16.27;47.71;99054.03;4886782;29;20037;-64
2021/03/11 10:29:27;;;;;;;5.93;1.33;;;;;;;16.26;47.69;99057.72;4886415;29;20519;-64
2021/03/11 10:32:01;;;;;;;3.90;0.98;;;;;;;16.24;47.83;99051.81;4896575;29;20051;-64
2021/03/11 10:34:27;;;;;;;5.57;1.20;;;;;;;16.24;47.81;99054.44;4888082;29;20194;-64
2021/03/11 10:37:00;;;;;;;4.05;1.30;;;;;;;16.23;47.85;99055.47;4896702;29;20203;-64
2021/03/11 10:39:27;;;;;;;3.75;1.02;;;;;;;16.23;47.67;99050.19;4882379;29;20055;-64
2021/03/11 10:41:56;;;;;;;5.03;1.33;;;;;;;16.21;47.95;99061.00;4887782;29;20136;-64
2021/03/11 10:44:21;;;;;;;5.03;1.27;;;;;;;16.19;47.60;99057.75;4890100;29;20032;-64
2021/03/11 10:46:47;;;;;;;3.67;1.00;;;;;;;16.16;47.61;99052.91;4896503;29;20516;-64
2021/03/11 10:49:14;;;;;;;5.97;1.15;;;;;;;16.15;47.59;99052.09;4896121;29;20404;-64
2021/03/11 10:51:41;;;;;;;6.63;1.10;;;;;;;16.13;47.33;99040.94;4886069;29;20449;-64
2021/03/11 10:54:06;;;;;;;5.45;1.20;;;;;;;16.13;47.18;99048.06;4885030;29;20040;-64
2021/03/11 10:56:32;;;;;;;5.63;1.30;;;;;;;16.11;47.58;99058.84;4892989;29;20365;-64
2021/03/11 10:59:06;;;;;;;5.07;1.10;;;;;;;16.11;47.22;99060.69;4895450;29;20111;-64
2021/03/11 11:01:33;;;;;;;6.53;1.60;;;;;;;16.11;47.13;99061.50;4882883;29;20039;-64
2021/03/11 11:04:00;;;;;;;5.10;1.08;;;;;;;16.11;47.12;99065.97;4895699;29;20104;-64
2021/03/11 11:06:27;;;;;;;7.22;1.30;;;;;;;16.10;47.13;99062.53;4885339;29;20225;-64
2021/03/11 11:08:52;;;;;;;5.22;1.30;;;;;;;16.10;46.82;99065.16;4886538;29;20036;-64
2021/03/11 11:11:19;;;;;;;4.05;1.40;;;;;;;16.07;46.89;99060.28;4892165;29;20378;-64
2021/03/11 11:13:46;;;;;;;5.68;1.58;;;;;;;16.06;46.56;99074.53;4880566;29;20045;-64
2021/03/11 11:16:12;;;;;;;7.57;1.95;;;;;;;16.04;46.55;99076.59;4880999;29;20043;-65
2021/03/11 11:18:38;;;;;;;5.38;1.88;;;;;;;16.01;46.38;99082.31;4894846;29;20032;-64
2021/03/11 11:21:04;;;;;;;5.97;1.63;;;;;;;15.98;46.39;99095.97;4895164;29;20040;-64
2021/03/11 11:23:31;;;;;;;4.80;1.40;;;;;;;15.95;46.36;99114.91;4895654;29;20096;-64
2021/03/11 11:25:56;;;;;;;4.57;1.60;;;;;;;15.92;46.04;99110.03;4881041;29;20493;-64
2021/03/11 11:28:22;;;;;;;3.55;1.20;;;;;;;15.89;46.36;99121.03;4887460;29;20056;-64
2021/03/11 11:30:47;;;;;;;4.22;1.20;;;;;;;15.88;46.06;99119.44;4889425;29;20420;-65
2021/03/11 11:33:13;;;;;;;5.25;1.40;;;;;;;15.84;46.18;99110.31;4881959;29;20060;-64
2021/03/11 11:35:38;;;;;;;3.67;1.65;;;;;;;15.84;46.01;99112.94;4895244;29;20107;-64
2021/03/11 11:38:04;;;;;;;4.40;1.40;;;;;;;15.81;46.31;99108.91;4889281;29;20037;-64